createdAt,value
2023-04-05T00:01:35.772Z,99801.06
2023-04-05T00:04:09.306Z,99796.22
2023-04-05T00:06:42.832Z,99789.16
2023-04-05T00:09:13.375Z,99792.47
2023-04-05T00:11:43.944Z,99789.84
2023-04-05T00:14:14.530Z,99788.59
2023-04-05T00:16:47.452Z,99785.56
2023-04-05T00:19:18.181Z,99773.63
2023-04-05T00:21:51.290Z,99771.97
2023-04-05T00:24:26.963Z,99764.66
2023-04-05T00:27:00.863Z,99766.03
2023-04-05T00:29:31.703Z,99767.97
2023-04-05T00:32:02.374Z,99767.28
2023-04-05T00:34:34.173Z,99751.50
2023-04-05T00:37:04.609Z,99761.72
2023-04-05T00:39:35.065Z,99764.09
2023-04-05T00:42:06.324Z,99766.88
2023-04-05T00:44:37.319Z,99758.81
2023-04-05T00:47:11.992Z,99756.88
2023-04-05T00:49:43.990Z,99758.81
2023-04-05T00:52:16.962Z,99755.94
2023-04-05T00:54:52.469Z,99748.97
2023-04-05T00:57:23.494Z,99738.06
2023-04-05T00:59:56.074Z,99746.09
2023-04-05T01:02:36.622Z,99737.78
2023-04-05T01:05:40.626Z,99733.06
2023-04-05T01:08:24.383Z,99731.94
2023-04-05T01:10:59.356Z,99734.56
2023-04-05T01:13:32.448Z,99730.88
2023-04-05T01:16:03.056Z,99733.75
2023-04-05T01:18:34.498Z,99734.19
2023-04-05T01:21:31.198Z,99737.94
2023-04-05T01:24:28.897Z,99723.22
2023-04-05T01:27:03.924Z,99728.38
2023-04-05T01:29:51.815Z,99727.50
2023-04-05T01:32:49.381Z,99728.09
2023-04-05T01:35:26.314Z,99716.88
2023-04-05T01:38:04.894Z,99719.78
2023-04-05T01:40:39.058Z,99724.91
2023-04-05T01:43:22.474Z,99721.84
2023-04-05T01:45:56.956Z,99704.97
2023-04-05T01:48:28.226Z,99705.53
2023-04-05T01:51:03.201Z,99703.84
2023-04-05T01:53:43.549Z,99706.06
2023-04-05T01:56:20.886Z,99707.88
2023-04-05T01:58:52.472Z,99702.91
2023-04-05T02:01:23.832Z,99702.19
2023-04-05T02:03:57.709Z,99692.63
2023-04-05T02:06:31.999Z,99694.16
2023-04-05T02:09:04.859Z,99690.00
2023-04-05T02:11:38.037Z,99689.72
2023-04-05T02:14:08.906Z,99693.31
2023-04-05T02:16:44.750Z,99682.94
2023-04-05T02:19:17.419Z,99683.50
2023-04-05T02:21:47.893Z,99684.47
2023-04-05T02:24:18.549Z,99680.16
2023-04-05T02:26:50.223Z,99677.81
2023-04-05T02:29:20.622Z,99666.72
2023-04-05T02:31:55.302Z,99664.09
2023-04-05T02:34:25.862Z,99670.47
2023-04-05T02:36:56.509Z,99670.31
2023-04-05T02:39:28.639Z,99663.91
2023-04-05T02:42:01.482Z,99656.72
2023-04-05T02:44:35.304Z,99665.72
2023-04-05T02:47:07.583Z,99663.34
2023-04-05T02:49:40.395Z,99666.09
2023-04-05T02:52:12.557Z,99664.44
2023-04-05T02:54:48.599Z,99665.16
2023-04-05T02:57:25.759Z,99663.34
2023-04-05T03:00:03.765Z,99662.38
2023-04-05T03:02:36.533Z,99664.00
2023-04-05T03:05:09.725Z,99668.47
2023-04-05T03:07:44.680Z,99673.44
2023-04-05T03:10:20.562Z,99666.50
2023-04-05T03:12:56.008Z,99655.13
2023-04-05T03:15:30.150Z,99652.38
2023-04-05T03:18:02.801Z,99654.03
2023-04-05T03:20:36.126Z,99641.84
2023-04-05T03:23:10.991Z,99632.97
2023-04-05T03:25:43.164Z,99626.06
2023-04-05T03:28:14.979Z,99620.63
2023-04-05T03:30:49.125Z,99615.22
2023-04-05T03:33:23.105Z,99612.75
2023-04-05T03:35:55.015Z,99616.03
2023-04-05T03:38:25.902Z,99609.94
2023-04-05T03:41:12.178Z,99609.94
2023-04-05T03:43:43.060Z,99614.94
2023-04-05T03:46:13.574Z,99609.81
2023-04-05T03:48:44.296Z,99613.28
2023-04-05T03:51:14.855Z,99621.84
2023-04-05T03:53:45.257Z,99611.31
2023-04-05T03:56:16.736Z,99607.03
2023-04-05T03:58:51.942Z,99613.81
2023-04-05T04:01:30.775Z,99617.41
2023-04-05T04:04:02.211Z,99612.03
2023-04-05T04:06:33.086Z,99612.84
2023-04-05T04:09:03.985Z,99606.88
2023-04-05T04:11:35.259Z,99601.34
2023-04-05T04:14:08.411Z,99607.41
2023-04-05T04:17:11.294Z,99599.53
2023-04-05T04:20:13.241Z,99585.25
2023-04-05T04:23:11.553Z,99592.28
2023-04-05T04:25:57.451Z,99592.16
2023-04-05T04:28:57.332Z,99595.78
2023-04-05T04:31:52.076Z,99598.25
2023-04-05T04:34:46.144Z,99593.16
2023-04-05T04:37:34.926Z,99605.31
2023-04-05T04:40:42.307Z,99597.97
2023-04-05T04:43:38.837Z,99596.28
2023-04-05T04:46:28.711Z,99597.91
2023-04-05T04:49:15.722Z,99588.31
2023-04-05T04:51:51.169Z,99588.03
2023-04-05T04:54:25.649Z,99585.13
2023-04-05T04:56:56.235Z,99580.69
2023-04-05T04:59:27.637Z,99566.06
2023-04-05T05:01:58.819Z,99561.78
2023-04-05T05:04:29.570Z,99561.63
2023-04-05T05:07:00.043Z,99553.44
2023-04-05T05:09:30.772Z,99541.59
2023-04-05T05:12:03.267Z,99538.13
2023-04-05T05:14:33.688Z,99538.66
2023-04-05T05:17:04.337Z,99529.28
2023-04-05T05:19:34.843Z,99529.41
2023-04-05T05:22:05.460Z,99528.00
2023-04-05T05:24:36.039Z,99539.53
2023-04-05T05:27:06.988Z,99521.78
2023-04-05T05:29:37.574Z,99517.16
2023-04-05T05:32:09.033Z,99520.78
2023-04-05T05:34:40.417Z,99529.59
2023-04-05T05:37:11.290Z,99515.72
2023-04-05T05:39:41.862Z,99506.47
2023-04-05T05:42:13.636Z,99496.31
2023-04-05T05:44:44.024Z,99483.81
2023-04-05T05:47:14.889Z,99473.13
2023-04-05T05:49:45.537Z,99465.06
2023-04-05T05:52:16.338Z,99466.56
2023-04-05T05:54:47.111Z,99455.34
2023-04-05T05:57:18.209Z,99458.50
2023-04-05T05:59:51.708Z,99468.19
2023-04-05T06:02:42.887Z,99475.44
2023-04-05T06:05:13.848Z,99494.19
2023-04-05T06:07:44.464Z,99501.06
2023-04-05T06:10:15.158Z,99513.19
2023-04-05T06:12:48.713Z,99508.50
2023-04-05T06:15:19.360Z,99524.59
2023-04-05T06:17:49.995Z,99536.28
2023-04-05T06:20:23.213Z,99546.28
2023-04-05T06:22:53.863Z,99567.63
2023-04-05T06:25:24.322Z,99566.97
2023-04-05T06:27:54.739Z,99566.59
2023-04-05T06:30:25.205Z,99575.47
2023-04-05T06:32:55.981Z,99573.97
2023-04-05T06:35:29.416Z,99581.19
2023-04-05T06:37:59.953Z,99574.41
2023-04-05T06:40:30.608Z,99562.66
2023-04-05T06:43:01.164Z,99569.44
2023-04-05T06:45:34.633Z,99569.91
2023-04-05T06:48:05.630Z,99567.56
2023-04-05T06:50:36.156Z,99572.81
2023-04-05T06:53:06.589Z,99584.59
2023-04-05T06:55:37.112Z,99565.34
2023-04-05T06:58:10.710Z,99577.69
2023-04-05T07:00:41.489Z,99574.53
2023-04-05T07:03:12.402Z,99561.53
2023-04-05T07:05:42.736Z,99573.97
2023-04-05T07:08:13.587Z,99567.22
2023-04-05T07:10:44.064Z,99578.72
2023-04-05T07:13:14.509Z,99579.84
2023-04-05T07:15:45.623Z,99586.91
2023-04-05T07:18:19.107Z,99602.84
2023-04-05T07:20:51.091Z,99611.69
2023-04-05T07:23:21.847Z,99617.13
2023-04-05T07:25:54.098Z,99619.19
2023-04-05T07:28:24.796Z,99632.50
2023-04-05T07:30:56.102Z,99634.31
2023-04-05T07:33:26.551Z,99629.50
2023-04-05T07:35:58.441Z,99632.56
2023-04-05T07:38:31.254Z,99639.19
2023-04-05T07:41:01.892Z,99626.47
2023-04-05T07:43:34.902Z,99618.56
2023-04-05T07:46:08.450Z,99615.94
2023-04-05T07:48:38.840Z,99624.81
2023-04-05T07:51:10.566Z,99629.34
2023-04-05T07:53:41.115Z,99631.31
2023-04-05T07:56:13.507Z,99623.41
2023-04-05T07:58:44.552Z,99621.75
2023-04-05T08:01:18.342Z,99614.00
2023-04-05T08:03:49.241Z,99618.44
2023-04-05T08:06:19.881Z,99620.38
2023-04-05T08:08:51.168Z,99624.00
2023-04-05T08:11:21.722Z,99620.53
2023-04-05T08:13:52.525Z,99625.91
2023-04-05T08:16:23.148Z,99638.41
2023-04-05T08:18:54.721Z,99646.28
2023-04-05T08:21:25.526Z,99647.38
2023-04-05T08:23:56.140Z,99651.00
2023-04-05T08:26:27.377Z,99656.41
2023-04-05T08:28:57.769Z,99656.53
2023-04-05T08:31:29.280Z,99654.06
2023-04-05T08:34:00.142Z,99655.03
2023-04-05T08:36:33.390Z,99659.19
2023-04-05T08:39:04.160Z,99662.53
2023-04-05T08:41:42.867Z,99662.53
2023-04-05T08:44:15.086Z,99664.44
2023-04-05T08:46:47.302Z,99665.56
2023-04-05T08:49:18.218Z,99670.97
2023-04-05T08:51:48.741Z,99660.59
2023-04-05T08:54:19.788Z,99661.41
2023-04-05T08:56:51.449Z,99658.94
2023-04-05T08:59:22.980Z,99672.91
2023-04-05T09:01:54.273Z,99675.53
2023-04-05T09:04:26.168Z,99680.13
2023-04-05T09:07:00.415Z,99673.16
2023-04-05T09:09:37.932Z,99667.38
2023-04-05T09:12:09.758Z,99680.66
2023-04-05T09:14:41.075Z,99697.28
2023-04-05T09:17:12.894Z,99686.88
2023-04-05T09:19:45.151Z,99683.28
2023-04-05T09:22:19.884Z,99689.50
2023-04-05T09:24:51.410Z,99685.22
2023-04-05T09:27:24.507Z,99695.91
2023-04-05T09:29:59.721Z,99695.19
2023-04-05T09:32:30.822Z,99689.25
2023-04-05T09:35:07.305Z,99701.56
2023-04-05T09:37:38.666Z,99705.16
2023-04-05T09:40:11.839Z,99707.09
2023-04-05T09:42:49.291Z,99704.47
2023-04-05T09:45:20.642Z,99702.81
2023-04-05T09:47:59.310Z,99700.34
2023-04-05T09:50:30.698Z,99701.16
2023-04-05T09:53:17.408Z,99703.91
2023-04-05T09:55:51.091Z,99706.53
2023-04-05T09:58:25.361Z,99713.75
2023-04-05T10:01:06.551Z,99713.88
2023-04-05T10:03:52.723Z,99711.25
2023-04-05T10:06:23.588Z,99711.25
2023-04-05T10:08:54.798Z,99726.31
2023-04-05T10:11:26.566Z,99729.91
2023-04-05T10:13:57.682Z,99744.03
2023-04-05T10:16:31.204Z,99754.56
2023-04-05T10:19:07.743Z,99750.28
2023-04-05T10:21:43.832Z,99757.28
2023-04-05T10:24:25.714Z,99767.94
2023-04-05T10:27:12.323Z,99765.31
2023-04-05T10:30:08.002Z,99766.44
2023-04-05T10:33:06.027Z,99765.59
2023-04-05T10:35:58.855Z,99778.72
2023-04-05T10:38:31.531Z,99771.00
2023-04-05T10:41:12.768Z,99779.03
2023-04-05T10:43:44.217Z,99779.03
2023-04-05T10:46:22.498Z,99779.13
2023-04-05T10:48:56.093Z,99783.56
2023-04-05T10:51:34.049Z,99777.47
2023-04-05T10:54:05.497Z,99776.66
2023-04-05T10:56:36.253Z,99776.94
2023-04-05T10:59:07.481Z,99782.19
2023-04-05T11:01:40.248Z,99791.16
2023-04-05T11:04:15.701Z,99792.00
2023-04-05T11:06:55.133Z,99790.34
2023-04-05T11:09:28.358Z,99797.47
2023-04-05T11:11:58.886Z,99801.00
2023-04-05T11:14:43.421Z,99799.28
2023-04-05T11:17:28.298Z,99801.06
2023-04-05T11:20:13.462Z,99807.28
2023-04-05T11:22:56.698Z,99807.44
2023-04-05T11:25:27.652Z,99801.47
2023-04-05T11:28:04.320Z,99798.84
2023-04-05T11:30:53.480Z,99799.81
2023-04-05T11:33:55.425Z,99808.53
2023-04-05T11:36:34.085Z,99801.75
2023-04-05T11:39:23.028Z,99807.84
2023-04-05T11:42:05.808Z,99810.56
2023-04-05T11:44:50.687Z,99823.84
2023-04-05T11:47:25.071Z,99825.66
2023-04-05T11:49:55.554Z,99843.22
2023-04-05T11:52:26.266Z,99849.44
2023-04-05T11:54:56.788Z,99854.69
2023-04-05T11:57:27.541Z,99874.16
2023-04-05T11:59:58.180Z,99893.91
2023-04-05T12:02:28.541Z,99911.22
2023-04-05T12:04:59.951Z,99923.50
2023-04-05T12:07:34.003Z,99921.84
2023-04-05T12:10:06.160Z,99927.09
2023-04-05T12:12:41.324Z,99931.66
2023-04-05T12:15:15.905Z,99939.91
2023-04-05T12:17:51.901Z,99934.81
2023-04-05T12:20:26.706Z,99937.44
2023-04-05T12:22:58.736Z,99932.19
2023-04-05T12:25:29.372Z,99954.94
2023-04-05T12:28:07.531Z,99948.19
2023-04-05T12:30:39.530Z,99956.06
2023-04-05T12:33:13.731Z,99951.06
2023-04-05T12:35:44.337Z,99956.31
2023-04-05T12:38:18.991Z,99952.72
2023-04-05T12:40:50.270Z,99956.31
2023-04-05T12:43:23.961Z,99958.09
2023-04-05T12:45:57.980Z,99959.19
2023-04-05T12:48:28.473Z,99946.91
2023-04-05T12:50:59.080Z,99949.63
2023-04-05T12:53:30.229Z,99940.94
2023-04-05T12:56:03.331Z,99946.31
2023-04-05T12:58:37.806Z,99948.94
2023-04-05T13:01:08.709Z,99962.06
2023-04-05T13:03:39.258Z,99963.16
2023-04-05T13:06:09.908Z,99959.84
2023-04-05T13:08:40.329Z,99958.03
2023-04-05T13:11:10.722Z,99967.56
2023-04-05T13:13:41.174Z,99962.31
2023-04-05T13:16:11.715Z,99957.34
2023-04-05T13:18:42.297Z,99967.00
2023-04-05T13:21:13.101Z,99962.84
2023-04-05T13:23:44.394Z,99961.19
2023-04-05T13:26:15.840Z,99960.34
2023-04-05T13:28:46.254Z,99962.97
2023-04-05T13:31:16.916Z,99961.41
2023-04-05T13:33:47.423Z,99967.50
2023-04-05T13:36:17.913Z,99963.06
2023-04-05T13:38:48.325Z,99956.31
2023-04-05T13:41:22.729Z,99969.44
2023-04-05T13:43:53.472Z,99963.47
2023-04-05T13:46:24.614Z,99969.56
2023-04-05T13:48:55.095Z,99975.88
2023-04-05T13:51:26.345Z,99976.84
2023-04-05T13:53:56.849Z,99969.81
2023-04-05T13:56:27.381Z,99971.72
2023-04-05T13:58:57.881Z,99958.72
2023-04-05T14:01:28.402Z,99947.38
2023-04-05T14:03:58.916Z,99942.28
2023-04-05T14:06:29.661Z,99949.19
2023-04-05T14:09:00.547Z,99941.44
2023-04-05T14:11:30.976Z,99944.19
2023-04-05T14:14:02.677Z,99945.97
2023-04-05T14:16:33.403Z,99942.53
2023-04-05T14:19:04.553Z,99945.28
2023-04-05T14:21:36.485Z,99948.00
2023-04-05T14:24:07.218Z,99946.25
2023-04-05T14:26:38.126Z,99951.59
2023-04-05T14:29:08.569Z,99938.47
2023-04-05T14:31:39.444Z,99937.66
2023-04-05T14:34:09.890Z,99930.75
2023-04-05T14:36:40.464Z,99921.22
2023-04-05T14:39:10.895Z,99923.94
2023-04-05T14:41:42.394Z,99919.53
2023-04-05T14:44:12.773Z,99920.47
2023-04-05T14:46:43.572Z,99919.53
2023-04-05T14:49:13.755Z,99917.16
2023-04-05T14:51:44.212Z,99918.97
2023-04-05T14:54:14.708Z,99923.38
2023-04-05T14:56:45.111Z,99926.94
2023-04-05T14:59:16.405Z,99930.53
2023-04-05T15:01:50.729Z,99921.00
2023-04-05T15:04:21.425Z,99936.03
2023-04-05T15:06:51.843Z,99934.25
2023-04-05T15:09:22.415Z,99922.06
2023-04-05T15:11:54.414Z,99923.88
2023-04-05T15:14:31.714Z,99917.91
2023-04-05T15:17:02.844Z,99909.09
2023-04-05T15:19:33.232Z,99916.13
2023-04-05T15:22:03.693Z,99906.59
2023-04-05T15:24:35.042Z,99924.97
2023-04-05T15:27:06.112Z,99919.84
2023-04-05T15:29:36.764Z,99907.63
2023-04-05T15:32:07.158Z,99891.91
2023-04-05T15:34:37.564Z,99889.53
2023-04-05T15:37:08.603Z,99896.44
2023-04-05T15:39:39.275Z,99887.84
2023-04-05T15:42:09.702Z,99892.28
2023-04-05T15:44:40.014Z,99884.53
2023-04-05T15:47:12.314Z,99892.53
2023-04-05T15:49:42.675Z,99901.09
2023-04-05T15:52:13.930Z,99918.63
2023-04-05T15:54:45.891Z,99895.28
2023-04-05T15:57:16.389Z,99889.19
2023-04-05T15:59:46.813Z,99901.34
2023-04-05T16:02:17.224Z,99918.03
2023-04-05T16:04:47.712Z,99915.41
2023-04-05T16:07:18.428Z,99931.28
2023-04-05T16:09:48.901Z,99926.06
2023-04-05T16:12:19.290Z,99929.63
2023-04-05T16:14:49.677Z,99924.38
2023-04-05T16:17:20.467Z,99934.06
2023-04-05T16:19:51.168Z,99935.13
2023-04-05T16:22:22.614Z,99938.56
2023-04-05T16:24:53.052Z,99931.66
2023-04-05T16:27:24.710Z,99938.84
2023-04-05T16:29:55.456Z,99946.72
2023-04-05T16:32:25.880Z,99947.63
2023-04-05T16:34:56.431Z,99939.78
2023-04-05T16:37:26.862Z,99938.13
2023-04-05T16:39:57.460Z,99943.50
2023-04-05T16:42:28.288Z,99937.41
2023-04-05T16:44:59.436Z,99928.81
2023-04-05T16:47:30.114Z,99931.56
2023-04-05T16:50:00.955Z,99933.38
2023-04-05T16:52:31.442Z,99929.78
2023-04-05T16:55:02.721Z,99925.50
2023-04-05T16:57:33.233Z,99913.22
2023-04-05T17:00:03.634Z,99917.63
2023-04-05T17:02:34.585Z,99922.16
2023-04-05T17:05:05.621Z,99916.06
2023-04-05T17:07:36.456Z,99916.91
2023-04-05T17:10:06.877Z,99923.94
2023-04-05T17:12:38.834Z,99944.94
2023-04-05T17:15:10.507Z,99950.16
2023-04-05T17:17:42.519Z,99931.94
2023-04-05T17:20:13.698Z,99918.84
2023-04-05T17:22:44.529Z,99932.91
2023-04-05T17:25:14.882Z,99919.06
2023-04-05T17:27:45.284Z,99910.38
2023-04-05T17:30:16.478Z,99907.75
2023-04-05T17:32:46.922Z,99907.75
2023-04-05T17:35:17.579Z,99911.34
2023-04-05T17:37:49.105Z,99907.06
2023-04-05T17:40:20.110Z,99907.19
2023-04-05T17:42:50.526Z,99909.81
2023-04-05T17:45:21.363Z,99916.81
2023-04-05T17:47:51.901Z,99915.16
2023-04-05T17:50:24.764Z,99906.59
2023-04-05T17:52:55.588Z,99906.59
2023-04-05T17:55:26.348Z,99902.19
2023-04-05T17:57:57.052Z,99894.44
2023-04-05T18:00:27.660Z,99900.53
2023-04-05T18:02:58.192Z,99890.97
2023-04-05T18:05:29.615Z,99882.28
2023-04-05T18:08:00.116Z,99884.06
2023-04-05T18:10:30.426Z,99881.44
2023-04-05T18:13:00.860Z,99885.84
2023-04-05T18:15:31.915Z,99883.38
2023-04-05T18:18:02.692Z,99868.69
2023-04-05T18:20:33.624Z,99871.31
2023-04-05T18:23:04.133Z,99866.91
2023-04-05T18:25:35.608Z,99868.69
2023-04-05T18:28:19.286Z,99867.88
2023-04-05T18:30:54.261Z,99857.50
2023-04-05T18:33:24.755Z,99862.75
2023-04-05T18:35:55.394Z,99862.75
2023-04-05T18:38:25.756Z,99869.78
2023-04-05T18:41:06.191Z,99867.28
2023-04-05T18:43:36.818Z,99853.34
2023-04-05T18:46:07.091Z,99855.13
2023-04-05T18:48:40.342Z,99860.38
2023-04-05T18:51:10.729Z,99862.16
2023-04-05T18:53:41.113Z,99851.81
2023-04-05T18:56:11.829Z,99857.88
2023-04-05T18:58:42.623Z,99871.97
2023-04-05T19:01:16.273Z,99879.09
2023-04-05T19:03:47.876Z,99871.13
2023-04-05T19:06:19.357Z,99865.16
2023-04-05T19:08:49.975Z,99868.59
2023-04-05T19:11:20.956Z,99860.75
2023-04-05T19:13:52.229Z,99873.03
2023-04-05T19:16:22.700Z,99873.97
2023-04-05T19:18:53.167Z,99871.50
2023-04-05T19:21:23.705Z,99863.72
2023-04-05T19:23:54.191Z,99853.25
2023-04-05T19:26:24.649Z,99856.69
2023-04-05T19:28:55.142Z,99850.63
2023-04-05T19:31:25.538Z,99852.56
2023-04-05T19:33:55.946Z,99849.94
2023-04-05T19:36:26.595Z,99846.47
2023-04-05T19:38:57.020Z,99847.31
2023-04-05T19:41:27.631Z,99852.69
2023-04-05T19:43:58.152Z,99855.31
2023-04-05T19:46:32.447Z,99851.81
2023-04-05T19:49:11.473Z,99853.75
2023-04-05T19:51:43.764Z,99849.47
2023-04-05T19:54:16.215Z,99849.47
2023-04-05T19:56:47.013Z,99844.22
2023-04-05T19:59:34.854Z,99847.69
2023-04-05T20:02:21.340Z,99852.22
2023-04-05T20:04:51.791Z,99849.47
2023-04-05T20:07:22.583Z,99852.22
2023-04-05T20:09:53.430Z,99850.44
2023-04-05T20:12:24.142Z,99847.91
2023-04-05T20:14:54.660Z,99856.59
2023-04-05T20:17:29.556Z,99853.16
2023-04-05T20:20:02.468Z,99848.88
2023-04-05T20:22:34.767Z,99856.03
2023-04-05T20:25:37.468Z,99852.44
2023-04-05T20:28:29.866Z,99862.94
2023-04-05T20:31:00.783Z,99875.31
2023-04-05T20:33:43.798Z,99883.31
2023-04-05T20:36:15.929Z,99887.59
2023-04-05T20:38:47.768Z,99888.53
2023-04-05T20:41:20.545Z,99887.72
2023-04-05T20:43:50.981Z,99884.25
2023-04-05T20:46:21.363Z,99876.41
2023-04-05T20:48:52.612Z,99876.41
2023-04-05T20:51:23.032Z,99872.13
2023-04-05T20:53:54.068Z,99869.59
2023-04-05T20:56:24.489Z,99859.13
2023-04-05T20:58:56.234Z,99869.72
2023-04-05T21:01:28.643Z,99876.75
2023-04-05T21:03:59.394Z,99868.06
2023-04-05T21:06:30.379Z,99868.19
2023-04-05T21:09:00.810Z,99862.97
2023-04-05T21:11:31.547Z,99877.97
2023-04-05T21:14:02.231Z,99884.03
2023-04-05T21:16:33.013Z,99884.03
2023-04-05T21:19:03.380Z,99887.59
2023-04-05T21:21:33.818Z,99892.97
2023-04-05T21:24:04.828Z,99887.75
2023-04-05T21:26:35.418Z,99891.19
2023-04-05T21:29:06.230Z,99900.72
2023-04-05T21:31:37.919Z,99899.03
2023-04-05T21:34:08.459Z,99900.09
2023-04-05T21:36:39.399Z,99904.50
2023-04-05T21:39:10.016Z,99908.78
2023-04-05T21:41:41.586Z,99916.78
2023-04-05T21:44:12.114Z,99909.75
2023-04-05T21:46:42.619Z,99920.22
2023-04-05T21:49:13.007Z,99917.75
2023-04-05T21:51:44.075Z,99920.38
2023-04-05T21:54:14.526Z,99912.50
2023-04-05T21:56:44.872Z,99902.13
2023-04-05T21:59:15.294Z,99908.28
2023-04-05T22:01:45.758Z,99905.66
2023-04-05T22:04:16.282Z,99911.75
2023-04-05T22:06:46.724Z,99912.69
2023-04-05T22:09:17.339Z,99923.19
2023-04-05T22:11:47.757Z,99917.09
2023-04-05T22:14:18.503Z,99924.25
2023-04-05T22:16:49.484Z,99919.03
2023-04-05T22:19:20.106Z,99921.66
2023-04-05T22:21:50.670Z,99920.91
2023-04-05T22:24:21.158Z,99923.53
2023-04-05T22:26:53.414Z,99930.44
2023-04-05T22:29:23.912Z,99920.91
2023-04-05T22:31:54.499Z,99917.47
2023-04-05T22:34:24.992Z,99916.63
2023-04-05T22:36:55.459Z,99919.25
2023-04-05T22:39:26.358Z,99919.38
2023-04-05T22:41:57.701Z,99915.81
2023-04-05T22:44:28.198Z,99921.66
2023-04-05T22:46:58.954Z,99925.84
2023-04-05T22:49:29.482Z,99924.63
2023-04-05T22:51:59.981Z,99920.81
2023-04-05T22:54:30.435Z,99921.03
2023-04-05T22:57:02.009Z,99924.34
2023-04-05T22:59:32.501Z,99918.97
2023-04-05T23:02:03.664Z,99923.97
2023-04-05T23:04:34.381Z,99921.81
2023-04-05T23:07:04.804Z,99922.78
2023-04-05T23:09:35.714Z,99926.84
2023-04-05T23:12:06.591Z,99916.06
2023-04-05T23:14:36.929Z,99928.72
2023-04-05T23:17:07.463Z,99927.25
2023-04-05T23:19:38.623Z,99923.56
2023-04-05T23:22:09.012Z,99918.19
2023-04-05T23:24:39.951Z,99926.75
2023-04-05T23:27:10.542Z,99931.06
2023-04-05T23:29:41.043Z,99916.38
2023-04-05T23:32:14.334Z,99923.44
2023-04-05T23:34:44.753Z,99919.59
2023-04-05T23:37:16.485Z,99915.78
2023-04-05T23:39:47.116Z,99924.13
2023-04-05T23:42:18.024Z,99940.44
2023-04-05T23:44:48.489Z,99941.84
2023-04-05T23:47:19.031Z,99936.22
2023-04-05T23:49:49.587Z,99932.09
2023-04-05T23:52:20.012Z,99944.63
2023-04-05T23:54:50.408Z,99945.56
2023-04-05T23:57:21.578Z,99949.94
2023-04-05T23:59:53.798Z,99948.38
